createdAt,value
2023-05-08T00:01:02.172Z,4.50
2023-05-08T00:03:29.213Z,4.60
2023-05-08T00:05:56.326Z,4.30
2023-05-08T00:08:23.729Z,4.10
2023-05-08T00:10:50.711Z,4.10
2023-05-08T00:13:17.825Z,4.70
2023-05-08T00:15:44.954Z,5.30
2023-05-08T00:18:11.980Z,4.70
2023-05-08T00:20:39.124Z,4.60
2023-05-08T00:23:06.225Z,4.60
2023-05-08T00:25:33.368Z,5.10
2023-05-08T00:28:00.798Z,5.10
2023-05-08T00:30:28.758Z,5.00
2023-05-08T00:32:55.698Z,4.20
2023-05-08T00:35:22.716Z,3.90
2023-05-08T00:37:49.549Z,4.30
2023-05-08T00:40:16.461Z,4.70
2023-05-08T00:42:43.499Z,4.60
2023-05-08T00:45:10.969Z,5.60
2023-05-08T00:47:38.461Z,5.70
2023-05-08T00:50:06.295Z,5.70
2023-05-08T00:52:33.620Z,6.00
2023-05-08T00:55:04.791Z,5.90
2023-05-08T00:57:35.064Z,6.20
2023-05-08T01:00:04.130Z,5.60
2023-05-08T01:02:32.043Z,5.00
2023-05-08T01:04:59.718Z,5.30
2023-05-08T01:07:27.590Z,4.80
2023-05-08T01:09:54.963Z,4.70
2023-05-08T01:12:42.896Z,5.70
2023-05-08T01:15:27.139Z,5.10
2023-05-08T01:18:17.025Z,5.20
2023-05-08T01:21:15.938Z,5.30
2023-05-08T01:24:08.174Z,4.90
2023-05-08T01:26:47.486Z,4.80
2023-05-08T01:29:30.392Z,6.00
2023-05-08T01:32:14.809Z,5.70
2023-05-08T01:35:29.991Z,5.10
2023-05-08T01:38:38.270Z,5.00
2023-05-08T01:41:22.669Z,5.20
2023-05-08T01:44:14.765Z,6.10
2023-05-08T01:46:44.940Z,4.60
2023-05-08T01:49:29.723Z,5.70
2023-05-08T01:52:02.705Z,4.80
2023-05-08T01:54:38.514Z,4.90
2023-05-08T01:57:09.744Z,5.60
2023-05-08T01:59:41.136Z,5.30
2023-05-08T02:02:11.830Z,5.90
2023-05-08T02:04:42.344Z,5.20
2023-05-08T02:07:09.261Z,5.20
2023-05-08T02:09:37.529Z,6.20
2023-05-08T02:12:07.814Z,6.30
2023-05-08T02:14:36.961Z,6.30
2023-05-08T02:17:05.875Z,5.60
2023-05-08T02:19:35.698Z,6.60
2023-05-08T02:22:04.126Z,5.70
2023-05-08T02:24:33.607Z,5.50
2023-05-08T02:27:01.278Z,5.50
2023-05-08T02:29:29.711Z,4.90
2023-05-08T02:31:57.714Z,5.70
2023-05-08T02:34:25.479Z,5.20
2023-05-08T02:36:54.292Z,4.60
2023-05-08T02:39:26.082Z,5.20
2023-05-08T02:41:53.383Z,5.60
2023-05-08T02:44:20.471Z,5.30
2023-05-08T02:46:58.719Z,4.60
2023-05-08T02:49:28.690Z,5.00
2023-05-08T02:52:11.120Z,5.00
2023-05-08T02:55:10.572Z,4.80
2023-05-08T02:57:49.770Z,5.00
2023-05-08T03:00:27.072Z,4.40
2023-05-08T03:03:16.026Z,4.90
2023-05-08T03:05:50.404Z,4.80
2023-05-08T03:08:23.547Z,4.80
2023-05-08T03:10:54.984Z,4.20
2023-05-08T03:13:23.194Z,5.00
2023-05-08T03:16:06.030Z,4.70
2023-05-08T03:18:40.971Z,4.00
2023-05-08T03:21:12.574Z,4.90
2023-05-08T03:23:41.230Z,5.60
2023-05-08T03:26:09.160Z,4.70
2023-05-08T03:28:38.745Z,5.20
2023-05-08T03:31:06.493Z,4.90
2023-05-08T03:33:37.233Z,5.10
2023-05-08T03:36:05.605Z,5.20
2023-05-08T03:38:34.599Z,4.50
2023-05-08T03:41:01.700Z,4.50
2023-05-08T03:43:30.992Z,4.50
2023-05-08T03:45:59.256Z,4.70
2023-05-08T03:48:28.326Z,4.50
2023-05-08T03:50:57.198Z,4.80
2023-05-08T03:53:24.479Z,4.40
2023-05-08T03:55:51.359Z,4.40
2023-05-08T03:58:31.295Z,4.50
2023-05-08T04:01:41.156Z,5.20
2023-05-08T04:04:27.597Z,5.30
2023-05-08T04:07:17.647Z,4.70
2023-05-08T04:10:02.829Z,5.20
2023-05-08T04:12:40.075Z,6.20
2023-05-08T04:15:14.151Z,6.40
2023-05-08T04:17:45.276Z,7.30
2023-05-08T04:20:18.845Z,13.50
2023-05-08T04:22:49.434Z,7.80
2023-05-08T04:25:18.039Z,7.30
2023-05-08T04:27:46.485Z,15.20
2023-05-08T04:30:15.166Z,6.90
2023-05-08T04:32:46.193Z,6.90
2023-05-08T04:35:14.197Z,7.90
2023-05-08T04:37:44.751Z,6.60
2023-05-08T04:40:12.069Z,5.80
2023-05-08T04:42:42.325Z,14.60
2023-05-08T04:45:10.223Z,6.30
2023-05-08T04:47:37.845Z,6.20
2023-05-08T04:50:05.773Z,6.90
2023-05-08T04:52:34.406Z,5.60
2023-05-08T04:55:02.157Z,9.80
2023-05-08T04:57:29.756Z,6.50
2023-05-08T04:59:56.903Z,6.20
2023-05-08T05:02:27.560Z,6.00
2023-05-08T05:04:58.270Z,5.90
2023-05-08T05:07:25.635Z,5.90
2023-05-08T05:09:52.993Z,6.60
2023-05-08T05:12:20.577Z,7.10
2023-05-08T05:14:47.620Z,5.70
2023-05-08T05:17:14.585Z,6.00
2023-05-08T05:19:41.801Z,6.30
2023-05-08T05:22:09.075Z,5.60
2023-05-08T05:24:36.270Z,5.20
2023-05-08T05:27:04.097Z,14.20
2023-05-08T05:29:31.767Z,7.70
2023-05-08T05:31:59.230Z,10.80
2023-05-08T05:34:26.289Z,6.60
2023-05-08T05:36:53.649Z,7.30
2023-05-08T05:39:20.991Z,7.60
2023-05-08T05:41:48.745Z,5.40
2023-05-08T05:44:16.055Z,5.60
2023-05-08T05:46:44.490Z,5.60
2023-05-08T05:49:12.178Z,5.10
2023-05-08T05:51:39.845Z,5.50
2023-05-08T05:54:07.088Z,5.60
2023-05-08T05:56:34.608Z,5.60
2023-05-08T05:59:01.624Z,8.10
2023-05-08T06:01:29.340Z,9.00
2023-05-08T06:03:56.669Z,6.00
2023-05-08T06:06:24.363Z,6.80
2023-05-08T06:08:51.376Z,6.00
2023-05-08T06:11:18.929Z,10.10
2023-05-08T06:13:47.219Z,7.20
2023-05-08T06:16:15.552Z,5.80
2023-05-08T06:18:42.956Z,7.20
2023-05-08T06:21:10.319Z,9.40
2023-05-08T06:23:37.474Z,7.10
2023-05-08T06:26:04.534Z,7.10
2023-05-08T06:28:31.656Z,7.90
2023-05-08T06:30:58.831Z,9.00
2023-05-08T06:33:27.148Z,10.60
2023-05-08T06:35:54.482Z,6.90
2023-05-08T06:38:21.398Z,7.10
2023-05-08T06:40:50.336Z,6.80
2023-05-08T06:43:17.344Z,7.60
2023-05-08T06:45:45.158Z,8.60
2023-05-08T06:48:12.329Z,6.80
2023-05-08T06:50:40.214Z,6.30
2023-05-08T06:53:07.537Z,5.80
2023-05-08T06:55:34.920Z,7.20
2023-05-08T06:58:01.955Z,4.90
2023-05-08T07:00:29.142Z,5.50
2023-05-08T07:02:56.180Z,6.40
2023-05-08T07:05:23.422Z,7.40
2023-05-08T07:07:50.640Z,6.40
2023-05-08T07:10:20.628Z,6.50
2023-05-08T07:12:50.817Z,5.50
2023-05-08T07:15:26.055Z,7.20
2023-05-08T07:17:53.861Z,7.80
2023-05-08T07:20:21.201Z,7.80
2023-05-08T07:22:48.292Z,6.70
2023-05-08T07:25:15.709Z,9.50
2023-05-08T07:27:42.929Z,6.90
2023-05-08T07:30:10.624Z,6.40
2023-05-08T07:32:38.816Z,7.40
2023-05-08T07:35:10.761Z,6.30
2023-05-08T07:37:41.314Z,5.20
2023-05-08T07:40:08.694Z,5.50
2023-05-08T07:42:42.703Z,5.50
2023-05-08T07:45:11.715Z,6.80
2023-05-08T07:47:48.479Z,8.10
2023-05-08T07:50:15.738Z,6.80
2023-05-08T07:52:42.963Z,5.00
2023-05-08T07:55:10.779Z,5.80
2023-05-08T07:57:39.742Z,5.30
2023-05-08T08:00:08.762Z,8.10
2023-05-08T08:02:43.069Z,5.70
2023-05-08T08:05:10.750Z,5.30
2023-05-08T08:07:37.878Z,4.70
2023-05-08T08:10:05.915Z,4.00
2023-05-08T08:12:33.110Z,5.10
2023-05-08T08:15:00.017Z,6.50
2023-05-08T08:17:28.919Z,4.90
2023-05-08T08:19:56.621Z,6.10
2023-05-08T08:23:16.433Z,6.90
2023-05-08T08:25:43.388Z,8.30
2023-05-08T08:28:10.850Z,8.10
2023-05-08T08:30:37.950Z,5.20
2023-05-08T08:33:05.915Z,5.30
2023-05-08T08:35:33.278Z,8.40
2023-05-08T08:38:00.535Z,5.50
2023-05-08T08:40:28.015Z,5.30
2023-05-08T08:42:55.166Z,8.90
2023-05-08T08:45:22.288Z,6.10
2023-05-08T08:47:52.623Z,4.70
2023-05-08T08:50:22.969Z,4.20
2023-05-08T08:52:55.986Z,4.60
2023-05-08T08:55:25.840Z,4.60
2023-05-08T08:58:15.638Z,4.40
2023-05-08T09:00:43.288Z,4.70
2023-05-08T09:03:11.393Z,6.50
2023-05-08T09:05:39.624Z,6.00
2023-05-08T09:08:07.207Z,5.90
2023-05-08T09:10:35.741Z,5.00
2023-05-08T09:13:04.076Z,4.60
2023-05-08T09:15:32.552Z,3.30
2023-05-08T09:18:01.923Z,3.80
2023-05-08T09:20:29.538Z,4.50
2023-05-08T09:22:57.565Z,3.50
2023-05-08T09:25:24.659Z,4.10
2023-05-08T09:27:51.979Z,4.00
2023-05-08T09:30:19.251Z,3.60
2023-05-08T09:32:46.450Z,4.30
2023-05-08T09:35:14.099Z,3.40
2023-05-08T09:37:42.959Z,2.50
2023-05-08T09:40:13.961Z,2.90
2023-05-08T09:42:41.333Z,4.00
2023-05-08T09:45:09.218Z,3.60
2023-05-08T09:47:39.831Z,3.60
2023-05-08T09:50:10.094Z,4.30
2023-05-08T09:52:38.831Z,3.30
2023-05-08T09:55:08.312Z,3.70
2023-05-08T09:57:38.902Z,4.60
2023-05-08T10:00:12.347Z,3.00
2023-05-08T10:02:41.926Z,4.20
2023-05-08T10:05:29.320Z,5.60
2023-05-08T10:07:57.901Z,4.50
2023-05-08T10:10:26.926Z,4.00
2023-05-08T10:12:56.033Z,3.30
2023-05-08T10:15:33.953Z,5.20
2023-05-08T10:18:05.842Z,3.80
2023-05-08T10:20:34.610Z,3.50
2023-05-08T10:23:02.989Z,2.90
2023-05-08T10:25:33.834Z,2.50
2023-05-08T10:28:16.898Z,3.30
2023-05-08T10:30:48.299Z,3.30
2023-05-08T10:33:20.867Z,2.50
2023-05-08T10:35:48.585Z,2.80
2023-05-08T10:38:16.812Z,3.80
2023-05-08T10:40:44.653Z,3.10
2023-05-08T10:43:12.079Z,3.10
2023-05-08T10:45:39.710Z,3.50
2023-05-08T10:48:35.414Z,3.20
2023-05-08T10:51:05.661Z,3.20
2023-05-08T10:54:01.724Z,3.50
2023-05-08T10:56:28.769Z,4.80
2023-05-08T10:58:59.110Z,3.50
2023-05-08T11:01:26.458Z,3.10
2023-05-08T11:03:55.189Z,3.60
2023-05-08T11:06:48.573Z,3.50
2023-05-08T11:09:21.366Z,3.50
2023-05-08T11:12:18.317Z,3.00
2023-05-08T11:15:04.605Z,2.40
2023-05-08T11:17:32.380Z,3.00
2023-05-08T11:20:01.614Z,2.60
2023-05-08T11:22:36.317Z,2.50
2023-05-08T11:25:03.411Z,4.40
2023-05-08T11:27:37.087Z,2.40
2023-05-08T11:30:32.302Z,2.50
2023-05-08T11:33:05.244Z,2.60
2023-05-08T11:35:45.146Z,4.40
2023-05-08T11:38:30.614Z,1.50
2023-05-08T11:41:02.579Z,1.50
2023-05-08T11:43:32.390Z,0.80
2023-05-08T11:46:02.528Z,0.60
2023-05-08T11:48:30.762Z,0.50
2023-05-08T11:50:59.585Z,0.80
2023-05-08T11:53:27.169Z,0.90
2023-05-08T11:55:54.965Z,0.60
2023-05-08T11:58:22.273Z,0.40
2023-05-08T12:00:49.590Z,0.40
2023-05-08T12:03:22.868Z,0.40
2023-05-08T12:05:50.980Z,0.50
2023-05-08T12:08:18.358Z,0.40
2023-05-08T12:10:53.816Z,0.60
2023-05-08T12:13:25.599Z,0.60
2023-05-08T12:15:55.515Z,0.40
2023-05-08T12:18:23.644Z,0.30
2023-05-08T12:20:52.725Z,0.40
2023-05-08T12:23:20.452Z,0.50
2023-05-08T12:25:47.585Z,0.30
2023-05-08T12:28:15.367Z,0.50
2023-05-08T12:30:42.560Z,0.50
2023-05-08T12:33:10.645Z,0.40
2023-05-08T12:35:39.158Z,0.40
2023-05-08T12:38:08.150Z,0.40
2023-05-08T12:40:39.784Z,0.40
2023-05-08T12:43:06.898Z,0.40
2023-05-08T12:45:40.018Z,0.30
2023-05-08T12:48:12.461Z,0.40
2023-05-08T12:50:42.038Z,0.30
2023-05-08T12:53:17.834Z,0.30
2023-05-08T12:55:53.776Z,0.40
2023-05-08T12:58:25.818Z,0.50
2023-05-08T13:03:27.656Z,0.30
2023-05-08T13:05:57.724Z,0.60
2023-05-08T13:08:31.742Z,0.20
2023-05-08T13:11:00.303Z,0.40
2023-05-08T13:13:30.891Z,0.40
2023-05-08T13:16:01.766Z,1.30
2023-05-08T13:18:29.504Z,0.80
2023-05-08T13:20:57.170Z,0.40
2023-05-08T13:23:24.652Z,0.40
2023-05-08T13:25:52.108Z,0.30
2023-05-08T13:28:19.355Z,0.60
2023-05-08T13:30:46.610Z,0.30
2023-05-08T13:33:13.681Z,0.30
2023-05-08T13:35:40.805Z,0.30
2023-05-08T13:38:07.775Z,0.50
2023-05-08T13:40:34.739Z,0.30
2023-05-08T13:43:01.684Z,0.30
2023-05-08T13:45:28.835Z,0.40
2023-05-08T13:47:55.807Z,0.50
2023-05-08T13:50:22.928Z,0.30
2023-05-08T13:52:51.057Z,0.20
2023-05-08T13:55:21.858Z,0.40
2023-05-08T13:57:49.142Z,0.30
2023-05-08T14:00:16.784Z,0.20
2023-05-08T14:02:43.852Z,0.50
2023-05-08T14:05:11.310Z,0.40
2023-05-08T14:07:38.657Z,0.30
2023-05-08T14:10:06.045Z,0.50
2023-05-08T14:12:35.522Z,0.30
2023-05-08T14:15:04.255Z,0.30
2023-05-08T14:17:31.382Z,0.30
2023-05-08T14:19:58.745Z,0.20
2023-05-08T14:22:25.996Z,0.40
2023-05-08T14:24:53.247Z,0.20
2023-05-08T14:27:20.502Z,0.70
2023-05-08T14:29:47.681Z,0.30
2023-05-08T14:32:15.071Z,0.60
2023-05-08T14:34:42.148Z,0.40
2023-05-08T14:37:09.443Z,0.30
2023-05-08T14:39:36.392Z,0.20
2023-05-08T14:44:33.556Z,0.30
2023-05-08T14:47:00.652Z,0.20
2023-05-08T14:49:36.652Z,0.20
2023-05-08T14:52:06.829Z,0.30
2023-05-08T14:54:34.098Z,0.20
2023-05-08T14:57:01.538Z,0.20
2023-05-08T14:59:29.806Z,0.30
2023-05-08T15:01:57.124Z,0.20
2023-05-08T15:04:24.300Z,0.20
2023-05-08T15:06:51.358Z,0.20
2023-05-08T15:09:18.443Z,0.10
2023-05-08T15:11:45.489Z,0.20
2023-05-08T15:14:12.526Z,0.60
2023-05-08T15:16:39.619Z,0.40
2023-05-08T15:19:08.808Z,0.20
2023-05-08T15:21:35.844Z,0.20
2023-05-08T15:24:03.006Z,0.10
2023-05-08T15:26:30.004Z,0.30
2023-05-08T15:28:56.894Z,0.20
2023-05-08T15:31:23.815Z,0.30
2023-05-08T15:33:50.872Z,0.20
2023-05-08T15:36:17.795Z,0.30
2023-05-08T15:38:44.710Z,0.30
2023-05-08T15:41:14.753Z,0.20
2023-05-08T15:43:44.632Z,0.30
2023-05-08T15:46:11.797Z,0.20
2023-05-08T15:48:38.852Z,0.70
2023-05-08T15:51:06.073Z,0.20
2023-05-08T15:53:33.906Z,0.20
2023-05-08T15:56:00.927Z,0.20
2023-05-08T15:58:27.963Z,0.40
2023-05-08T16:00:56.289Z,0.30
2023-05-08T16:03:23.921Z,0.20
2023-05-08T16:05:50.885Z,0.20
2023-05-08T16:08:17.772Z,0.50
2023-05-08T16:10:44.668Z,0.30
2023-05-08T16:13:11.555Z,0.80
2023-05-08T16:15:38.681Z,0.60
2023-05-08T16:18:06.376Z,0.50
2023-05-08T16:20:35.092Z,0.50
2023-05-08T16:23:03.179Z,0.40
2023-05-08T16:25:30.199Z,0.40
2023-05-08T16:27:57.292Z,0.40
2023-05-08T16:30:24.283Z,0.40
2023-05-08T16:32:51.332Z,0.80
2023-05-08T16:35:19.038Z,0.70
2023-05-08T16:37:46.272Z,1.20
2023-05-08T16:40:13.385Z,1.60
2023-05-08T16:42:40.828Z,0.90
2023-05-08T16:45:08.369Z,0.50
2023-05-08T16:47:35.442Z,1.40
2023-05-08T16:50:03.764Z,0.50
2023-05-08T16:52:32.254Z,0.50
2023-05-08T16:54:59.292Z,1.00
2023-05-08T16:57:26.983Z,0.80
2023-05-08T16:59:54.303Z,0.70
2023-05-08T17:02:21.408Z,0.50
2023-05-08T17:04:49.004Z,0.50
2023-05-08T17:07:16.948Z,0.60
2023-05-08T17:09:44.732Z,0.60
2023-05-08T17:12:11.576Z,0.70
2023-05-08T17:14:39.765Z,0.40
2023-05-08T17:17:07.019Z,0.30
2023-05-08T17:19:34.758Z,0.50
2023-05-08T17:22:01.997Z,0.40
2023-05-08T17:24:29.964Z,0.40
2023-05-08T17:26:57.005Z,0.40
2023-05-08T17:29:24.096Z,0.50
2023-05-08T17:31:51.195Z,0.30
2023-05-08T17:34:18.304Z,0.60
2023-05-08T17:36:45.202Z,0.40
2023-05-08T17:39:12.214Z,0.60
2023-05-08T17:41:39.134Z,0.40
2023-05-08T17:44:06.508Z,0.40
2023-05-08T17:46:33.380Z,0.90
2023-05-08T17:49:00.411Z,0.60
2023-05-08T17:51:27.308Z,0.60
2023-05-08T17:53:55.888Z,0.50
2023-05-08T17:56:23.217Z,0.50
2023-05-08T17:58:51.763Z,0.60
2023-05-08T18:01:22.499Z,0.30
2023-05-08T18:03:49.450Z,0.40
2023-05-08T18:06:17.701Z,0.70
2023-05-08T18:08:45.673Z,0.30
2023-05-08T18:11:21.824Z,0.30
2023-05-08T18:13:49.798Z,0.40
2023-05-08T18:16:18.055Z,0.50
2023-05-08T18:18:45.171Z,0.60
2023-05-08T18:21:12.453Z,0.70
2023-05-08T18:23:39.485Z,0.50
2023-05-08T18:26:06.897Z,0.30
2023-05-08T18:28:35.660Z,0.40
2023-05-08T18:31:02.876Z,0.30
2023-05-08T18:33:29.795Z,0.20
2023-05-08T18:35:56.987Z,0.50
2023-05-08T18:38:24.033Z,0.90
2023-05-08T18:40:50.918Z,1.00
2023-05-08T18:43:17.772Z,0.50
2023-05-08T18:45:47.397Z,0.50
2023-05-08T18:48:14.263Z,0.50
2023-05-08T18:50:41.162Z,0.90
2023-05-08T18:53:09.232Z,1.10
2023-05-08T18:55:36.471Z,1.50
2023-05-08T18:58:05.470Z,1.10
2023-05-08T19:00:32.829Z,1.10
2023-05-08T19:03:02.003Z,0.60
2023-05-08T19:05:29.037Z,0.50
2023-05-08T19:07:55.929Z,0.40
2023-05-08T19:10:22.848Z,0.20
2023-05-08T19:12:50.146Z,0.40
2023-05-08T19:15:17.276Z,0.40
2023-05-08T19:17:44.298Z,0.40
2023-05-08T19:20:12.371Z,0.40
2023-05-08T19:22:39.478Z,0.40
2023-05-08T19:25:06.491Z,0.60
2023-05-08T19:27:33.589Z,0.80
2023-05-08T19:30:00.381Z,0.40
2023-05-08T19:32:28.214Z,0.50
2023-05-08T19:34:56.969Z,0.50
2023-05-08T19:37:24.426Z,0.60
2023-05-08T19:39:51.516Z,0.30
2023-05-08T19:42:18.502Z,0.70
2023-05-08T19:44:45.483Z,0.40
2023-05-08T19:47:12.901Z,0.40
2023-05-08T19:49:39.838Z,0.50
2023-05-08T19:52:06.664Z,0.80
2023-05-08T19:54:33.736Z,0.50
2023-05-08T19:57:01.432Z,0.70
2023-05-08T19:59:28.374Z,0.40
2023-05-08T20:01:55.394Z,0.40
2023-05-08T20:04:23.633Z,0.60
2023-05-08T20:06:50.710Z,0.40
2023-05-08T20:09:17.595Z,0.50
2023-05-08T20:11:44.636Z,0.40
2023-05-08T20:14:11.547Z,0.50
2023-05-08T20:16:38.603Z,0.90
2023-05-08T20:19:05.523Z,0.80
2023-05-08T20:21:33.443Z,0.40
2023-05-08T20:24:00.514Z,0.90
2023-05-08T20:26:28.912Z,0.30
2023-05-08T20:28:56.806Z,0.20
2023-05-08T20:31:25.199Z,0.50
2023-05-08T20:33:52.145Z,0.40
2023-05-08T20:36:19.470Z,0.20
2023-05-08T20:38:46.538Z,0.30
2023-05-08T20:41:13.441Z,0.40
2023-05-08T20:43:40.449Z,0.40
2023-05-08T20:46:07.720Z,0.30
2023-05-08T20:48:34.889Z,0.30
2023-05-08T20:51:01.825Z,0.70
2023-05-08T20:53:28.828Z,0.50
2023-05-08T20:56:03.449Z,0.40
2023-05-08T20:58:30.864Z,0.40
2023-05-08T21:00:57.852Z,0.60
2023-05-08T21:03:24.959Z,0.40
2023-05-08T21:05:51.878Z,0.40
2023-05-08T21:08:23.511Z,1.20
2023-05-08T21:10:51.303Z,0.30
2023-05-08T21:13:18.597Z,0.40
2023-05-08T21:15:49.513Z,0.30
2023-05-08T21:18:16.805Z,0.40
2023-05-08T21:20:50.241Z,0.40
2023-05-08T21:23:18.496Z,0.50
2023-05-08T21:25:49.212Z,0.40
2023-05-08T21:28:16.680Z,0.40
2023-05-08T21:30:44.645Z,0.40
2023-05-08T21:33:15.552Z,0.50
2023-05-08T21:35:43.166Z,0.50
2023-05-08T21:38:12.949Z,0.40
2023-05-08T21:40:39.998Z,0.40
2023-05-08T21:43:07.269Z,0.50
2023-05-08T21:45:34.558Z,0.50
2023-05-08T21:48:02.082Z,0.40
2023-05-08T21:50:29.079Z,0.40
2023-05-08T21:52:56.204Z,0.40
2023-05-08T21:55:23.744Z,0.50
2023-05-08T21:57:50.779Z,0.50
2023-05-08T22:00:18.480Z,0.70
2023-05-08T22:02:48.503Z,0.80
2023-05-08T22:05:15.829Z,0.80
2023-05-08T22:07:43.093Z,0.70
2023-05-08T22:10:11.124Z,0.60
2023-05-08T22:12:38.163Z,0.50
2023-05-08T22:15:14.988Z,0.70
2023-05-08T22:17:45.346Z,1.50
2023-05-08T22:20:16.144Z,1.30
2023-05-08T22:22:43.152Z,1.00
2023-05-08T22:25:10.420Z,0.50
2023-05-08T22:27:37.490Z,0.40
2023-05-08T22:30:05.209Z,0.40
2023-05-08T22:32:32.316Z,0.40
2023-05-08T22:34:59.234Z,0.60
2023-05-08T22:37:26.248Z,0.60
2023-05-08T22:39:53.256Z,0.50
2023-05-08T22:42:20.417Z,0.50
2023-05-08T22:44:47.724Z,0.70
2023-05-08T22:47:15.487Z,0.60
2023-05-08T22:49:42.631Z,0.40
2023-05-08T22:52:09.743Z,0.50
2023-05-08T22:54:36.811Z,0.50
2023-05-08T22:57:03.784Z,0.60
2023-05-08T22:59:30.886Z,0.50
2023-05-08T23:01:57.912Z,0.60
2023-05-08T23:04:25.113Z,0.40
2023-05-08T23:06:52.153Z,0.50
2023-05-08T23:09:19.089Z,0.50
2023-05-08T23:11:46.870Z,0.50
2023-05-08T23:14:14.066Z,0.50
2023-05-08T23:16:41.183Z,0.30
2023-05-08T23:19:09.481Z,0.40
2023-05-08T23:21:36.497Z,0.40
2023-05-08T23:24:04.675Z,0.50
2023-05-08T23:26:31.795Z,0.30
2023-05-08T23:28:58.753Z,0.40
2023-05-08T23:31:25.785Z,0.40
2023-05-08T23:33:52.803Z,0.50
2023-05-08T23:36:20.132Z,0.50
2023-05-08T23:38:47.212Z,0.50
2023-05-08T23:41:14.173Z,0.50
2023-05-08T23:43:41.685Z,0.40
2023-05-08T23:46:09.247Z,0.50
2023-05-08T23:48:36.530Z,0.50
2023-05-08T23:51:03.614Z,0.60
2023-05-08T23:53:30.610Z,0.40
2023-05-08T23:55:57.658Z,0.60
2023-05-08T23:58:24.582Z,0.70
